sensor_id;sensor_type;location;lat;lon;timestamp;P1;durP1;ratioP1;P2;durP2;ratioP2
58302;SDS011;44109;52.398;7.024;2023-11-21T00:01:08;51.85;;;25.27;;
58302;SDS011;44109;52.398;7.024;2023-11-21T00:03:36;66.63;;;29.08;;
58302;SDS011;44109;52.398;7.024;2023-11-21T00:06:04;33.33;;;19.58;;
58302;SDS011;44109;52.398;7.024;2023-11-21T00:08:35;46.53;;;24.45;;
58302;SDS011;44109;52.398;7.024;2023-11-21T00:11:03;41.25;;;21.70;;
58302;SDS011;44109;52.398;7.024;2023-11-21T00:13:31;52.42;;;23.88;;
58302;SDS011;44109;52.398;7.024;2023-11-21T00:15:59;43.10;;;23.05;;
58302;SDS011;44109;52.398;7.024;2023-11-21T00:18:26;59.05;;;27.33;;
58302;SDS011;44109;52.398;7.024;2023-11-21T00:20:55;67.10;;;30.40;;
58302;SDS011;44109;52.398;7.024;2023-11-21T00:23:24;58.10;;;26.27;;
58302;SDS011;44109;52.398;7.024;2023-11-21T00:25:52;74.18;;;32.35;;
58302;SDS011;44109;52.398;7.024;2023-11-21T00:28:19;59.78;;;28.48;;
58302;SDS011;44109;52.398;7.024;2023-11-21T00:30:48;68.63;;;30.13;;
58302;SDS011;44109;52.398;7.024;2023-11-21T00:33:15;93.90;;;36.35;;
58302;SDS011;44109;52.398;7.024;2023-11-21T00:35:43;77.30;;;31.92;;
58302;SDS011;44109;52.398;7.024;2023-11-21T00:38:11;59.38;;;27.45;;
58302;SDS011;44109;52.398;7.024;2023-11-21T00:40:39;83.78;;;34.25;;
58302;SDS011;44109;52.398;7.024;2023-11-21T00:43:06;58.25;;;29.73;;
58302;SDS011;44109;52.398;7.024;2023-11-21T00:45:34;114.22;;;37.45;;
58302;SDS011;44109;52.398;7.024;2023-11-21T00:48:02;76.60;;;31.83;;
58302;SDS011;44109;52.398;7.024;2023-11-21T00:50:30;87.00;;;34.65;;
58302;SDS011;44109;52.398;7.024;2023-11-21T00:52:58;72.53;;;31.45;;
58302;SDS011;44109;52.398;7.024;2023-11-21T00:55:27;50.20;;;24.88;;
58302;SDS011;44109;52.398;7.024;2023-11-21T00:57:55;45.55;;;22.73;;
58302;SDS011;44109;52.398;7.024;2023-11-21T01:00:24;44.00;;;21.98;;
58302;SDS011;44109;52.398;7.024;2023-11-21T01:02:51;47.38;;;22.02;;
58302;SDS011;44109;52.398;7.024;2023-11-21T01:05:18;41.17;;;21.45;;
58302;SDS011;44109;52.398;7.024;2023-11-21T01:07:46;38.55;;;20.75;;
58302;SDS011;44109;52.398;7.024;2023-11-21T01:10:14;45.47;;;20.52;;
58302;SDS011;44109;52.398;7.024;2023-11-21T01:12:44;46.83;;;23.30;;
58302;SDS011;44109;52.398;7.024;2023-11-21T01:15:11;45.40;;;21.85;;
58302;SDS011;44109;52.398;7.024;2023-11-21T01:17:39;71.88;;;27.52;;
58302;SDS011;44109;52.398;7.024;2023-11-21T01:20:07;50.42;;;24.13;;
58302;SDS011;44109;52.398;7.024;2023-11-21T01:22:38;43.20;;;22.27;;
58302;SDS011;44109;52.398;7.024;2023-11-21T01:25:05;48.40;;;23.52;;
58302;SDS011;44109;52.398;7.024;2023-11-21T01:27:33;41.45;;;23.20;;
58302;SDS011;44109;52.398;7.024;2023-11-21T01:30:02;64.40;;;27.80;;
58302;SDS011;44109;52.398;7.024;2023-11-21T01:32:33;51.45;;;26.50;;
58302;SDS011;44109;52.398;7.024;2023-11-21T01:35:00;65.05;;;29.85;;
58302;SDS011;44109;52.398;7.024;2023-11-21T01:37:28;58.95;;;28.02;;
58302;SDS011;44109;52.398;7.024;2023-11-21T01:39:56;49.58;;;24.38;;
58302;SDS011;44109;52.398;7.024;2023-11-21T01:42:24;54.25;;;26.70;;
58302;SDS011;44109;52.398;7.024;2023-11-21T01:44:52;71.68;;;27.65;;
58302;SDS011;44109;52.398;7.024;2023-11-21T01:47:22;46.40;;;24.02;;
58302;SDS011;44109;52.398;7.024;2023-11-21T01:49:49;80.88;;;31.83;;
58302;SDS011;44109;52.398;7.024;2023-11-21T01:52:17;42.33;;;23.33;;
58302;SDS011;44109;52.398;7.024;2023-11-21T01:54:45;44.80;;;24.92;;
58302;SDS011;44109;52.398;7.024;2023-11-21T01:57:13;47.15;;;22.73;;
58302;SDS011;44109;52.398;7.024;2023-11-21T01:59:41;41.00;;;21.42;;
58302;SDS011;44109;52.398;7.024;2023-11-21T02:02:11;41.58;;;21.48;;
58302;SDS011;44109;52.398;7.024;2023-11-21T02:04:40;35.90;;;19.88;;
58302;SDS011;44109;52.398;7.024;2023-11-21T02:07:07;35.88;;;19.58;;
58302;SDS011;44109;52.398;7.024;2023-11-21T02:09:36;38.05;;;20.60;;
58302;SDS011;44109;52.398;7.024;2023-11-21T02:12:04;38.50;;;19.98;;
58302;SDS011;44109;52.398;7.024;2023-11-21T02:14:33;39.60;;;21.55;;
58302;SDS011;44109;52.398;7.024;2023-11-21T02:17:00;40.80;;;21.00;;
58302;SDS011;44109;52.398;7.024;2023-11-21T02:19:29;32.45;;;18.52;;
58302;SDS011;44109;52.398;7.024;2023-11-21T02:21:59;40.83;;;20.23;;
58302;SDS011;44109;52.398;7.024;2023-11-21T02:24:31;37.00;;;22.17;;
58302;SDS011;44109;52.398;7.024;2023-11-21T02:26:59;36.05;;;20.00;;
58302;SDS011;44109;52.398;7.024;2023-11-21T02:29:26;38.13;;;20.98;;
58302;SDS011;44109;52.398;7.024;2023-11-21T02:31:54;34.70;;;20.27;;
58302;SDS011;44109;52.398;7.024;2023-11-21T02:34:22;37.13;;;21.15;;
58302;SDS011;44109;52.398;7.024;2023-11-21T02:36:50;40.90;;;23.08;;
58302;SDS011;44109;52.398;7.024;2023-11-21T02:39:18;36.13;;;20.55;;
58302;SDS011;44109;52.398;7.024;2023-11-21T02:41:49;37.80;;;19.73;;
58302;SDS011;44109;52.398;7.024;2023-11-21T02:44:17;35.33;;;19.27;;
58302;SDS011;44109;52.398;7.024;2023-11-21T02:46:44;40.28;;;19.80;;
58302;SDS011;44109;52.398;7.024;2023-11-21T02:49:12;33.03;;;18.48;;
58302;SDS011;44109;52.398;7.024;2023-11-21T02:51:40;33.85;;;18.77;;
58302;SDS011;44109;52.398;7.024;2023-11-21T02:54:07;32.78;;;19.85;;
58302;SDS011;44109;52.398;7.024;2023-11-21T02:56:35;40.80;;;23.30;;
58302;SDS011;44109;52.398;7.024;2023-11-21T02:59:04;41.28;;;19.80;;
58302;SDS011;44109;52.398;7.024;2023-11-21T03:01:31;32.42;;;18.70;;
58302;SDS011;44109;52.398;7.024;2023-11-21T03:03:59;35.92;;;19.48;;
58302;SDS011;44109;52.398;7.024;2023-11-21T03:06:27;35.35;;;18.42;;
58302;SDS011;44109;52.398;7.024;2023-11-21T03:08:54;37.58;;;19.80;;
58302;SDS011;44109;52.398;7.024;2023-11-21T03:11:22;35.72;;;20.60;;
58302;SDS011;44109;52.398;7.024;2023-11-21T03:13:49;31.58;;;17.60;;
58302;SDS011;44109;52.398;7.024;2023-11-21T03:16:18;36.28;;;18.30;;
58302;SDS011;44109;52.398;7.024;2023-11-21T03:18:46;31.90;;;16.98;;
58302;SDS011;44109;52.398;7.024;2023-11-21T03:21:13;31.05;;;17.95;;
58302;SDS011;44109;52.398;7.024;2023-11-21T03:23:41;30.75;;;17.95;;
58302;SDS011;44109;52.398;7.024;2023-11-21T03:26:11;37.45;;;19.40;;
58302;SDS011;44109;52.398;7.024;2023-11-21T03:28:39;32.40;;;17.80;;
58302;SDS011;44109;52.398;7.024;2023-11-21T03:31:07;36.80;;;19.15;;
58302;SDS011;44109;52.398;7.024;2023-11-21T03:33:36;33.63;;;19.85;;
58302;SDS011;44109;52.398;7.024;2023-11-21T03:36:04;33.78;;;18.20;;
58302;SDS011;44109;52.398;7.024;2023-11-21T03:38:33;33.13;;;17.77;;
58302;SDS011;44109;52.398;7.024;2023-11-21T03:41:00;30.13;;;17.55;;
58302;SDS011;44109;52.398;7.024;2023-11-21T03:43:28;37.30;;;18.35;;
58302;SDS011;44109;52.398;7.024;2023-11-21T03:45:56;37.00;;;18.02;;
58302;SDS011;44109;52.398;7.024;2023-11-21T03:48:23;30.75;;;18.63;;
58302;SDS011;44109;52.398;7.024;2023-11-21T03:50:52;33.97;;;18.98;;
58302;SDS011;44109;52.398;7.024;2023-11-21T03:53:19;31.63;;;17.80;;
58302;SDS011;44109;52.398;7.024;2023-11-21T03:55:47;31.42;;;18.50;;
58302;SDS011;44109;52.398;7.024;2023-11-21T03:58:15;34.38;;;19.58;;
58302;SDS011;44109;52.398;7.024;2023-11-21T04:00:42;32.22;;;18.48;;
58302;SDS011;44109;52.398;7.024;2023-11-21T04:03:09;60.88;;;26.80;;
58302;SDS011;44109;52.398;7.024;2023-11-21T04:05:37;46.42;;;25.17;;
58302;SDS011;44109;52.398;7.024;2023-11-21T04:08:06;41.65;;;23.27;;
58302;SDS011;44109;52.398;7.024;2023-11-21T04:10:33;45.15;;;26.05;;
58302;SDS011;44109;52.398;7.024;2023-11-21T04:13:00;48.83;;;25.65;;
58302;SDS011;44109;52.398;7.024;2023-11-21T04:15:28;38.60;;;23.02;;
58302;SDS011;44109;52.398;7.024;2023-11-21T04:17:55;35.75;;;21.63;;
58302;SDS011;44109;52.398;7.024;2023-11-21T04:20:23;36.95;;;20.83;;
58302;SDS011;44109;52.398;7.024;2023-11-21T04:22:51;36.67;;;19.83;;
58302;SDS011;44109;52.398;7.024;2023-11-21T04:25:20;33.30;;;20.40;;
58302;SDS011;44109;52.398;7.024;2023-11-21T04:27:48;37.60;;;21.55;;
58302;SDS011;44109;52.398;7.024;2023-11-21T04:30:16;36.83;;;20.30;;
58302;SDS011;44109;52.398;7.024;2023-11-21T04:32:43;45.20;;;23.85;;
58302;SDS011;44109;52.398;7.024;2023-11-21T04:35:11;43.55;;;24.98;;
58302;SDS011;44109;52.398;7.024;2023-11-21T04:37:38;37.05;;;21.00;;
58302;SDS011;44109;52.398;7.024;2023-11-21T04:40:06;41.67;;;24.38;;
58302;SDS011;44109;52.398;7.024;2023-11-21T04:42:36;38.03;;;20.85;;
58302;SDS011;44109;52.398;7.024;2023-11-21T04:45:04;42.13;;;22.10;;
58302;SDS011;44109;52.398;7.024;2023-11-21T04:47:35;41.55;;;22.67;;
58302;SDS011;44109;52.398;7.024;2023-11-21T04:50:03;37.00;;;20.80;;
58302;SDS011;44109;52.398;7.024;2023-11-21T04:52:33;66.20;;;30.65;;
58302;SDS011;44109;52.398;7.024;2023-11-21T04:55:00;48.25;;;26.65;;
58302;SDS011;44109;52.398;7.024;2023-11-21T04:57:28;40.15;;;23.23;;
58302;SDS011;44109;52.398;7.024;2023-11-21T04:59:57;60.72;;;28.48;;
58302;SDS011;44109;52.398;7.024;2023-11-21T05:02:24;48.70;;;26.85;;
58302;SDS011;44109;52.398;7.024;2023-11-21T05:04:52;40.50;;;22.95;;
58302;SDS011;44109;52.398;7.024;2023-11-21T05:07:19;38.08;;;21.27;;
58302;SDS011;44109;52.398;7.024;2023-11-21T05:09:48;37.30;;;21.75;;
58302;SDS011;44109;52.398;7.024;2023-11-21T05:12:15;39.42;;;22.20;;
58302;SDS011;44109;52.398;7.024;2023-11-21T05:14:43;39.67;;;21.15;;
58302;SDS011;44109;52.398;7.024;2023-11-21T05:17:12;35.00;;;19.23;;
58302;SDS011;44109;52.398;7.024;2023-11-21T05:19:39;40.45;;;23.00;;
58302;SDS011;44109;52.398;7.024;2023-11-21T05:22:07;39.13;;;20.73;;
58302;SDS011;44109;52.398;7.024;2023-11-21T05:24:34;65.88;;;32.00;;
58302;SDS011;44109;52.398;7.024;2023-11-21T05:27:02;52.85;;;27.80;;
58302;SDS011;44109;52.398;7.024;2023-11-21T05:29:30;62.97;;;34.28;;
58302;SDS011;44109;52.398;7.024;2023-11-21T05:31:57;80.38;;;31.63;;
58302;SDS011;44109;52.398;7.024;2023-11-21T05:34:26;42.97;;;23.60;;
58302;SDS011;44109;52.398;7.024;2023-11-21T05:36:54;52.20;;;24.50;;
58302;SDS011;44109;52.398;7.024;2023-11-21T05:39:24;53.42;;;26.05;;
58302;SDS011;44109;52.398;7.024;2023-11-21T05:41:51;45.30;;;25.58;;
58302;SDS011;44109;52.398;7.024;2023-11-21T05:44:19;64.35;;;29.33;;
58302;SDS011;44109;52.398;7.024;2023-11-21T05:46:46;73.75;;;33.20;;
58302;SDS011;44109;52.398;7.024;2023-11-21T05:49:14;48.40;;;25.63;;
58302;SDS011;44109;52.398;7.024;2023-11-21T05:51:43;58.47;;;28.92;;
58302;SDS011;44109;52.398;7.024;2023-11-21T05:54:11;104.28;;;39.13;;
58302;SDS011;44109;52.398;7.024;2023-11-21T05:56:38;54.50;;;28.98;;
58302;SDS011;44109;52.398;7.024;2023-11-21T05:59:05;58.40;;;29.15;;
58302;SDS011;44109;52.398;7.024;2023-11-21T06:01:33;36.03;;;22.38;;
58302;SDS011;44109;52.398;7.024;2023-11-21T06:04:04;70.55;;;29.20;;
58302;SDS011;44109;52.398;7.024;2023-11-21T06:06:33;53.83;;;27.38;;
58302;SDS011;44109;52.398;7.024;2023-11-21T06:09:02;39.05;;;22.88;;
58302;SDS011;44109;52.398;7.024;2023-11-21T06:11:31;46.90;;;24.90;;
58302;SDS011;44109;52.398;7.024;2023-11-21T06:13:58;44.95;;;22.90;;
58302;SDS011;44109;52.398;7.024;2023-11-21T06:16:25;53.83;;;24.35;;
58302;SDS011;44109;52.398;7.024;2023-11-21T06:18:53;32.58;;;20.35;;
58302;SDS011;44109;52.398;7.024;2023-11-21T06:21:21;37.50;;;21.02;;
58302;SDS011;44109;52.398;7.024;2023-11-21T06:23:48;37.72;;;21.35;;
58302;SDS011;44109;52.398;7.024;2023-11-21T06:26:17;55.03;;;25.33;;
58302;SDS011;44109;52.398;7.024;2023-11-21T06:28:44;39.65;;;21.67;;
58302;SDS011;44109;52.398;7.024;2023-11-21T06:31:12;38.58;;;22.25;;
58302;SDS011;44109;52.398;7.024;2023-11-21T06:33:40;42.05;;;22.67;;
58302;SDS011;44109;52.398;7.024;2023-11-21T06:36:07;45.60;;;23.67;;
58302;SDS011;44109;52.398;7.024;2023-11-21T06:38:37;44.38;;;23.73;;
58302;SDS011;44109;52.398;7.024;2023-11-21T06:41:05;40.47;;;22.33;;
58302;SDS011;44109;52.398;7.024;2023-11-21T06:43:34;41.67;;;22.67;;
58302;SDS011;44109;52.398;7.024;2023-11-21T06:46:02;43.97;;;23.23;;
58302;SDS011;44109;52.398;7.024;2023-11-21T06:48:30;42.50;;;22.25;;
58302;SDS011;44109;52.398;7.024;2023-11-21T06:50:57;38.75;;;22.60;;
58302;SDS011;44109;52.398;7.024;2023-11-21T06:53:25;39.78;;;22.30;;
58302;SDS011;44109;52.398;7.024;2023-11-21T06:55:52;42.13;;;22.75;;
58302;SDS011;44109;52.398;7.024;2023-11-21T06:58:19;39.47;;;20.63;;
58302;SDS011;44109;52.398;7.024;2023-11-21T07:00:48;35.35;;;20.65;;
58302;SDS011;44109;52.398;7.024;2023-11-21T07:03:16;35.40;;;21.58;;
58302;SDS011;44109;52.398;7.024;2023-11-21T07:05:44;36.40;;;21.02;;
58302;SDS011;44109;52.398;7.024;2023-11-21T07:08:12;36.47;;;20.25;;
58302;SDS011;44109;52.398;7.024;2023-11-21T07:10:40;36.50;;;22.42;;
58302;SDS011;44109;52.398;7.024;2023-11-21T07:13:07;39.25;;;21.45;;
58302;SDS011;44109;52.398;7.024;2023-11-21T07:15:38;39.33;;;21.80;;
58302;SDS011;44109;52.398;7.024;2023-11-21T07:18:07;39.55;;;21.67;;
58302;SDS011;44109;52.398;7.024;2023-11-21T07:20:34;36.50;;;21.70;;
58302;SDS011;44109;52.398;7.024;2023-11-21T07:23:02;38.03;;;21.92;;
58302;SDS011;44109;52.398;7.024;2023-11-21T07:25:31;34.25;;;20.85;;
58302;SDS011;44109;52.398;7.024;2023-11-21T07:27:59;35.15;;;20.90;;
58302;SDS011;44109;52.398;7.024;2023-11-21T07:30:26;37.20;;;21.88;;
58302;SDS011;44109;52.398;7.024;2023-11-21T07:32:54;42.15;;;24.00;;
58302;SDS011;44109;52.398;7.024;2023-11-21T07:35:23;37.47;;;22.23;;
58302;SDS011;44109;52.398;7.024;2023-11-21T07:37:50;37.72;;;22.38;;
58302;SDS011;44109;52.398;7.024;2023-11-21T07:40:18;39.35;;;22.15;;
58302;SDS011;44109;52.398;7.024;2023-11-21T07:42:45;34.60;;;21.27;;
58302;SDS011;44109;52.398;7.024;2023-11-21T07:45:13;33.67;;;20.00;;
58302;SDS011;44109;52.398;7.024;2023-11-21T07:47:41;28.17;;;17.63;;
58302;SDS011;44109;52.398;7.024;2023-11-21T07:50:08;29.27;;;19.05;;
58302;SDS011;44109;52.398;7.024;2023-11-21T07:52:38;34.95;;;19.42;;
58302;SDS011;44109;52.398;7.024;2023-11-21T07:55:05;32.63;;;20.27;;
58302;SDS011;44109;52.398;7.024;2023-11-21T07:57:34;33.33;;;20.48;;
58302;SDS011;44109;52.398;7.024;2023-11-21T08:00:02;27.33;;;17.52;;
58302;SDS011;44109;52.398;7.024;2023-11-21T08:02:32;23.48;;;16.80;;
58302;SDS011;44109;52.398;7.024;2023-11-21T08:05:00;27.80;;;17.20;;
58302;SDS011;44109;52.398;7.024;2023-11-21T08:07:27;33.95;;;19.48;;
58302;SDS011;44109;52.398;7.024;2023-11-21T08:09:56;27.50;;;18.17;;
58302;SDS011;44109;52.398;7.024;2023-11-21T08:12:24;28.05;;;18.73;;
58302;SDS011;44109;52.398;7.024;2023-11-21T08:14:53;26.25;;;17.60;;
58302;SDS011;44109;52.398;7.024;2023-11-21T08:17:21;25.92;;;17.40;;
58302;SDS011;44109;52.398;7.024;2023-11-21T08:19:49;28.55;;;17.95;;
58302;SDS011;44109;52.398;7.024;2023-11-21T08:22:17;27.35;;;18.02;;
58302;SDS011;44109;52.398;7.024;2023-11-21T08:24:44;25.05;;;15.88;;
58302;SDS011;44109;52.398;7.024;2023-11-21T08:27:13;26.00;;;16.42;;
58302;SDS011;44109;52.398;7.024;2023-11-21T08:29:41;24.40;;;17.25;;
58302;SDS011;44109;52.398;7.024;2023-11-21T08:32:09;26.65;;;17.63;;
58302;SDS011;44109;52.398;7.024;2023-11-21T08:34:36;22.23;;;15.73;;
58302;SDS011;44109;52.398;7.024;2023-11-21T08:37:05;24.05;;;15.75;;
58302;SDS011;44109;52.398;7.024;2023-11-21T08:39:33;25.17;;;16.55;;
58302;SDS011;44109;52.398;7.024;2023-11-21T08:42:00;22.73;;;15.35;;
58302;SDS011;44109;52.398;7.024;2023-11-21T08:44:29;24.45;;;15.80;;
58302;SDS011;44109;52.398;7.024;2023-11-21T08:46:57;25.10;;;16.20;;
58302;SDS011;44109;52.398;7.024;2023-11-21T08:49:24;24.77;;;16.10;;
58302;SDS011;44109;52.398;7.024;2023-11-21T08:51:53;26.20;;;17.65;;
58302;SDS011;44109;52.398;7.024;2023-11-21T08:54:21;21.70;;;14.88;;
58302;SDS011;44109;52.398;7.024;2023-11-21T08:56:48;24.33;;;16.27;;
58302;SDS011;44109;52.398;7.024;2023-11-21T08:59:17;21.52;;;14.70;;
58302;SDS011;44109;52.398;7.024;2023-11-21T09:01:47;22.45;;;14.88;;
58302;SDS011;44109;52.398;7.024;2023-11-21T09:04:14;22.02;;;14.90;;
58302;SDS011;44109;52.398;7.024;2023-11-21T09:06:42;24.70;;;16.05;;
58302;SDS011;44109;52.398;7.024;2023-11-21T09:09:09;21.67;;;15.10;;
58302;SDS011;44109;52.398;7.024;2023-11-21T09:11:36;24.52;;;16.20;;
58302;SDS011;44109;52.398;7.024;2023-11-21T09:14:05;24.45;;;15.57;;
58302;SDS011;44109;52.398;7.024;2023-11-21T09:16:32;23.27;;;16.20;;
58302;SDS011;44109;52.398;7.024;2023-11-21T09:19:01;24.35;;;16.55;;
58302;SDS011;44109;52.398;7.024;2023-11-21T09:21:31;22.55;;;14.85;;
58302;SDS011;44109;52.398;7.024;2023-11-21T09:23:58;24.65;;;16.48;;
58302;SDS011;44109;52.398;7.024;2023-11-21T09:26:26;24.92;;;15.48;;
58302;SDS011;44109;52.398;7.024;2023-11-21T09:28:53;23.48;;;15.73;;
58302;SDS011;44109;52.398;7.024;2023-11-21T09:31:22;24.10;;;15.13;;
58302;SDS011;44109;52.398;7.024;2023-11-21T09:33:50;25.85;;;15.18;;
58302;SDS011;44109;52.398;7.024;2023-11-21T09:36:18;23.20;;;14.80;;
58302;SDS011;44109;52.398;7.024;2023-11-21T09:38:47;21.85;;;14.98;;
58302;SDS011;44109;52.398;7.024;2023-11-21T09:41:19;23.13;;;14.27;;
58302;SDS011;44109;52.398;7.024;2023-11-21T09:43:55;22.92;;;15.15;;
58302;SDS011;44109;52.398;7.024;2023-11-21T09:46:26;22.83;;;14.55;;
58302;SDS011;44109;52.398;7.024;2023-11-21T09:48:55;22.52;;;14.77;;
58302;SDS011;44109;52.398;7.024;2023-11-21T09:51:32;25.15;;;16.88;;
58302;SDS011;44109;52.398;7.024;2023-11-21T09:54:04;25.05;;;15.48;;
58302;SDS011;44109;52.398;7.024;2023-11-21T09:56:34;28.65;;;16.42;;
58302;SDS011;44109;52.398;7.024;2023-11-21T09:59:02;26.27;;;15.65;;
58302;SDS011;44109;52.398;7.024;2023-11-21T10:01:33;22.33;;;14.57;;
58302;SDS011;44109;52.398;7.024;2023-11-21T10:04:05;22.95;;;14.98;;
58302;SDS011;44109;52.398;7.024;2023-11-21T10:06:39;24.30;;;15.57;;
58302;SDS011;44109;52.398;7.024;2023-11-21T10:09:08;23.80;;;15.50;;
58302;SDS011;44109;52.398;7.024;2023-11-21T10:11:38;24.80;;;14.63;;
58302;SDS011;44109;52.398;7.024;2023-11-21T10:14:08;22.85;;;15.02;;
58302;SDS011;44109;52.398;7.024;2023-11-21T10:16:40;24.33;;;15.43;;
58302;SDS011;44109;52.398;7.024;2023-11-21T10:19:10;25.27;;;15.27;;
58302;SDS011;44109;52.398;7.024;2023-11-21T10:21:43;26.40;;;15.68;;
58302;SDS011;44109;52.398;7.024;2023-11-21T10:24:10;23.98;;;15.15;;
58302;SDS011;44109;52.398;7.024;2023-11-21T10:26:39;23.40;;;14.45;;
58302;SDS011;44109;52.398;7.024;2023-11-21T10:29:07;20.83;;;13.95;;
58302;SDS011;44109;52.398;7.024;2023-11-21T10:31:38;22.83;;;15.02;;
58302;SDS011;44109;52.398;7.024;2023-11-21T10:34:12;24.23;;;14.77;;
58302;SDS011;44109;52.398;7.024;2023-11-21T10:36:42;21.77;;;13.15;;
58302;SDS011;44109;52.398;7.024;2023-11-21T10:39:13;21.67;;;14.48;;
58302;SDS011;44109;52.398;7.024;2023-11-21T10:41:44;24.73;;;14.77;;
58302;SDS011;44109;52.398;7.024;2023-11-21T10:44:13;25.48;;;14.73;;
58302;SDS011;44109;52.398;7.024;2023-11-21T10:46:46;25.13;;;15.23;;
58302;SDS011;44109;52.398;7.024;2023-11-21T10:49:16;25.08;;;16.33;;
58302;SDS011;44109;52.398;7.024;2023-11-21T10:51:46;25.17;;;16.55;;
58302;SDS011;44109;52.398;7.024;2023-11-21T10:54:16;26.73;;;16.48;;
58302;SDS011;44109;52.398;7.024;2023-11-21T10:56:48;30.88;;;20.67;;
58302;SDS011;44109;52.398;7.024;2023-11-21T10:59:19;33.25;;;18.73;;
58302;SDS011;44109;52.398;7.024;2023-11-21T11:01:51;28.73;;;19.27;;
58302;SDS011;44109;52.398;7.024;2023-11-21T11:04:19;27.80;;;17.58;;
58302;SDS011;44109;52.398;7.024;2023-11-21T11:06:50;26.77;;;17.48;;
58302;SDS011;44109;52.398;7.024;2023-11-21T11:09:22;28.50;;;17.83;;
58302;SDS011;44109;52.398;7.024;2023-11-21T11:11:51;28.35;;;17.52;;
58302;SDS011;44109;52.398;7.024;2023-11-21T11:14:20;25.67;;;17.13;;
58302;SDS011;44109;52.398;7.024;2023-11-21T11:16:52;25.50;;;16.92;;
58302;SDS011;44109;52.398;7.024;2023-11-21T11:19:22;26.60;;;17.17;;
58302;SDS011;44109;52.398;7.024;2023-11-21T11:21:53;29.55;;;19.25;;
58302;SDS011;44109;52.398;7.024;2023-11-21T11:24:44;29.42;;;17.25;;
58302;SDS011;44109;52.398;7.024;2023-11-21T11:27:40;26.52;;;18.13;;
58302;SDS011;44109;52.398;7.024;2023-11-21T11:30:27;27.40;;;17.65;;
58302;SDS011;44109;52.398;7.024;2023-11-21T11:33:14;29.23;;;18.60;;
58302;SDS011;44109;52.398;7.024;2023-11-21T11:36:00;28.85;;;19.02;;
58302;SDS011;44109;52.398;7.024;2023-11-21T11:38:34;28.48;;;19.08;;
58302;SDS011;44109;52.398;7.024;2023-11-21T11:41:03;25.67;;;17.25;;
58302;SDS011;44109;52.398;7.024;2023-11-21T11:43:32;24.55;;;16.63;;
58302;SDS011;44109;52.398;7.024;2023-11-21T11:46:09;25.50;;;16.10;;
58302;SDS011;44109;52.398;7.024;2023-11-21T11:48:40;22.23;;;15.07;;
58302;SDS011;44109;52.398;7.024;2023-11-21T11:51:10;22.45;;;15.13;;
58302;SDS011;44109;52.398;7.024;2023-11-21T11:53:41;22.67;;;15.85;;
58302;SDS011;44109;52.398;7.024;2023-11-21T11:56:27;33.22;;;21.50;;
58302;SDS011;44109;52.398;7.024;2023-11-21T11:59:00;35.17;;;22.98;;
58302;SDS011;44109;52.398;7.024;2023-11-21T12:01:31;34.85;;;22.50;;
58302;SDS011;44109;52.398;7.024;2023-11-21T12:07:00;27.63;;;18.17;;
58302;SDS011;44109;52.398;7.024;2023-11-21T12:09:30;26.70;;;19.13;;
58302;SDS011;44109;52.398;7.024;2023-11-21T12:11:59;25.17;;;17.65;;
58302;SDS011;44109;52.398;7.024;2023-11-21T12:14:27;27.88;;;19.75;;
58302;SDS011;44109;52.398;7.024;2023-11-21T12:16:55;24.05;;;16.35;;
58302;SDS011;44109;52.398;7.024;2023-11-21T12:19:23;22.23;;;16.17;;
58302;SDS011;44109;52.398;7.024;2023-11-21T12:21:51;23.75;;;17.13;;
58302;SDS011;44109;52.398;7.024;2023-11-21T12:24:18;22.42;;;16.42;;
58302;SDS011;44109;52.398;7.024;2023-11-21T12:26:47;19.20;;;14.90;;
58302;SDS011;44109;52.398;7.024;2023-11-21T12:29:15;21.45;;;15.95;;
58302;SDS011;44109;52.398;7.024;2023-11-21T12:31:42;18.88;;;14.60;;
58302;SDS011;44109;52.398;7.024;2023-11-21T12:34:10;19.63;;;15.27;;
58302;SDS011;44109;52.398;7.024;2023-11-21T12:36:38;19.05;;;14.68;;
58302;SDS011;44109;52.398;7.024;2023-11-21T12:39:06;17.38;;;14.65;;
58302;SDS011;44109;52.398;7.024;2023-11-21T12:41:35;23.70;;;15.25;;
58302;SDS011;44109;52.398;7.024;2023-11-21T12:44:04;13.55;;;11.70;;
58302;SDS011;44109;52.398;7.024;2023-11-21T12:46:40;16.70;;;11.98;;
58302;SDS011;44109;52.398;7.024;2023-11-21T12:49:11;14.15;;;11.30;;
58302;SDS011;44109;52.398;7.024;2023-11-21T12:51:43;14.23;;;11.20;;
58302;SDS011;44109;52.398;7.024;2023-11-21T12:54:12;13.68;;;10.32;;
58302;SDS011;44109;52.398;7.024;2023-11-21T12:56:40;12.43;;;10.00;;
58302;SDS011;44109;52.398;7.024;2023-11-21T12:59:08;13.60;;;10.10;;
58302;SDS011;44109;52.398;7.024;2023-11-21T13:01:41;14.77;;;10.82;;
58302;SDS011;44109;52.398;7.024;2023-11-21T13:04:09;13.18;;;10.23;;
58302;SDS011;44109;52.398;7.024;2023-11-21T13:06:37;12.65;;;9.75;;
58302;SDS011;44109;52.398;7.024;2023-11-21T13:09:06;12.68;;;10.52;;
58302;SDS011;44109;52.398;7.024;2023-11-21T13:11:36;12.25;;;9.48;;
58302;SDS011;44109;52.398;7.024;2023-11-21T13:14:06;13.65;;;9.85;;
58302;SDS011;44109;52.398;7.024;2023-11-21T13:16:37;13.93;;;9.90;;
58302;SDS011;44109;52.398;7.024;2023-11-21T13:19:04;12.15;;;9.93;;
58302;SDS011;44109;52.398;7.024;2023-11-21T13:21:34;12.55;;;8.95;;
58302;SDS011;44109;52.398;7.024;2023-11-21T13:24:02;13.52;;;9.05;;
58302;SDS011;44109;52.398;7.024;2023-11-21T13:26:30;11.18;;;8.65;;
58302;SDS011;44109;52.398;7.024;2023-11-21T13:28:58;12.73;;;8.50;;
58302;SDS011;44109;52.398;7.024;2023-11-21T13:31:26;11.25;;;8.77;;
58302;SDS011;44109;52.398;7.024;2023-11-21T13:33:58;11.75;;;8.15;;
58302;SDS011;44109;52.398;7.024;2023-11-21T13:36:30;11.10;;;8.20;;
58302;SDS011;44109;52.398;7.024;2023-11-21T13:38:59;11.30;;;8.32;;
58302;SDS011;44109;52.398;7.024;2023-11-21T13:41:30;11.25;;;8.30;;
58302;SDS011;44109;52.398;7.024;2023-11-21T13:43:58;11.18;;;8.80;;
58302;SDS011;44109;52.398;7.024;2023-11-21T13:46:34;11.15;;;8.00;;
58302;SDS011;44109;52.398;7.024;2023-11-21T13:49:04;11.98;;;8.15;;
58302;SDS011;44109;52.398;7.024;2023-11-21T13:51:35;14.57;;;8.47;;
58302;SDS011;44109;52.398;7.024;2023-11-21T13:54:07;10.48;;;8.38;;
58302;SDS011;44109;52.398;7.024;2023-11-21T13:56:35;11.25;;;8.75;;
58302;SDS011;44109;52.398;7.024;2023-11-21T13:59:03;11.82;;;8.10;;
58302;SDS011;44109;52.398;7.024;2023-11-21T14:01:39;11.30;;;8.77;;
58302;SDS011;44109;52.398;7.024;2023-11-21T14:04:22;10.75;;;8.07;;
58302;SDS011;44109;52.398;7.024;2023-11-21T14:07:04;12.35;;;7.80;;
58302;SDS011;44109;52.398;7.024;2023-11-21T14:09:46;11.05;;;8.32;;
58302;SDS011;44109;52.398;7.024;2023-11-21T14:12:15;12.25;;;8.50;;
58302;SDS011;44109;52.398;7.024;2023-11-21T14:14:42;12.43;;;9.07;;
58302;SDS011;44109;52.398;7.024;2023-11-21T14:17:12;13.10;;;9.18;;
58302;SDS011;44109;52.398;7.024;2023-11-21T14:19:40;11.60;;;8.60;;
58302;SDS011;44109;52.398;7.024;2023-11-21T14:22:09;13.05;;;9.35;;
58302;SDS011;44109;52.398;7.024;2023-11-21T14:24:36;13.30;;;9.35;;
58302;SDS011;44109;52.398;7.024;2023-11-21T14:27:09;12.77;;;9.60;;
58302;SDS011;44109;52.398;7.024;2023-11-21T14:29:37;14.38;;;9.65;;
58302;SDS011;44109;52.398;7.024;2023-11-21T14:32:09;14.02;;;9.80;;
58302;SDS011;44109;52.398;7.024;2023-11-21T14:34:36;12.82;;;9.63;;
58302;SDS011;44109;52.398;7.024;2023-11-21T14:37:05;14.90;;;10.23;;